Time;durP1;ratioP1;P1;durP2;ratioP2;P2;SDS_P1;SDS_P2;PMS_P1;PMS_P2;Temp;Humidity;BMP_temperature;BMP_pressure;BME280_temperature;BME280_humidity;BME280_pressure;Samples;Min_cycle;Max_cycle;Signal;HPM_P1;HPM_P2
2023/03/26 00:01:00;;;;;;;13.20;7.20;;;;;;;8.03;89.67;99379.46;104564;1264;98410;-76
2023/03/26 00:03:52;;;;;;;12.60;7.00;;;;;;;8.00;89.77;99382.09;104760;1263;101401;-77
2023/03/26 00:06:38;;;;;;;8.40;6.30;;;;;;;8.01;89.76;99381.35;104794;1264;99388;-77
2023/03/26 00:09:23;;;;;;;12.10;7.30;;;;;;;8.02;90.10;99380.04;104707;1267;97883;-77
2023/03/26 00:12:09;;;;;;;13.00;6.70;;;;;;;8.02;90.15;99378.07;105105;1265;97986;-76
2023/03/26 00:14:57;;;;;;;9.90;6.30;;;;;;;8.02;90.02;99377.45;105000;1268;98992;-77
2023/03/26 00:17:45;;;;;;;13.50;7.20;;;;;;;8.02;90.00;99373.39;104799;1264;102531;-77
2023/03/26 00:20:33;;;;;;;15.30;7.60;;;;;;;8.02;89.94;99368.77;104710;1264;100519;-76
2023/03/26 00:23:19;;;;;;;11.00;6.80;;;;;;;8.03;90.04;99369.70;104652;1267;97990;-76
2023/03/26 00:26:09;;;;;;;11.70;6.20;;;;;;;8.05;90.04;99368.52;104765;1265;98082;-76
2023/03/26 00:28:56;;;;;;;12.60;7.10;;;;;;;8.03;89.94;99372.61;104693;1264;97980;-77
2023/03/26 00:31:44;;;;;;;14.40;7.70;;;;;;;8.00;89.64;99371.87;104752;1263;102619;-77
2023/03/26 00:34:33;;;;;;;12.90;7.70;;;;;;;7.97;89.89;99369.06;104799;1263;100372;-77
2023/03/26 00:37:19;;;;;;;11.80;6.60;;;;;;;7.95;89.82;99364.51;104760;1263;98576;-77
2023/03/26 00:40:06;;;;;;;10.90;6.10;;;;;;;7.94;90.03;99358.63;104701;1270;98079;-76
2023/03/26 00:42:52;;;;;;;10.60;5.90;;;;;;;7.95;90.06;99360.65;104811;1268;98502;-77
2023/03/26 00:45:37;;;;;;;11.40;5.80;;;;;;;7.93;90.00;99355.71;104715;1268;102950;-77
2023/03/26 00:48:23;;;;;;;9.80;5.90;;;;;;;7.92;90.06;99349.48;104808;1267;99766;-77
2023/03/26 00:51:11;;;;;;;10.40;5.70;;;;;;;7.92;89.95;99342.51;104871;1264;99458;-76
2023/03/26 00:53:57;;;;;;;10.10;5.70;;;;;;;7.93;90.03;99341.48;104818;1264;97954;-77
2023/03/26 00:56:42;;;;;;;11.00;6.60;;;;;;;7.90;89.89;99345.25;104955;1268;97913;-76
2023/03/26 00:59:29;;;;;;;8.00;5.80;;;;;;;7.90;89.98;99344.23;104796;1264;101377;-76
2023/03/26 01:02:19;;;;;;;9.30;5.80;;;;;;;7.89;90.05;99340.41;104844;1267;99291;-77
2023/03/26 01:05:41;;;;;;;11.30;5.60;;;;;;;7.90;90.16;99340.33;105446;1264;99632;-76
2023/03/26 01:08:31;;;;;;;7.80;5.10;;;;;;;7.88;90.15;99341.92;104598;1270;98070;-76
2023/03/26 01:11:24;;;;;;;9.80;4.90;;;;;;;7.87;90.44;99335.15;104811;1265;98501;-76
2023/03/26 01:14:15;;;;;;;9.80;5.80;;;;;;;7.85;90.62;99334.13;104780;1268;101407;-76
2023/03/26 01:17:04;;;;;;;7.40;4.50;;;;;;;7.84;90.63;99332.94;104735;1265;101575;-77
2023/03/26 01:20:11;;;;;;;8.00;5.40;;;;;;;7.82;90.88;99333.34;105620;1265;97999;-77
2023/03/26 01:23:04;;;;;;;8.50;5.40;;;;;;;7.81;90.84;99332.79;104758;1267;97999;-76
2023/03/26 01:26:00;;;;;;;10.80;6.50;;;;;;;7.79;91.13;99326.80;104572;1264;98757;-77
2023/03/26 01:28:47;;;;;;;10.30;5.80;;;;;;;7.79;91.22;99325.82;104543;1267;101937;-77
2023/03/26 01:31:48;;;;;;;9.10;5.80;;;;;;;7.79;91.38;99322.86;104611;1264;100364;-76
2023/03/26 01:34:51;;;;;;;10.00;5.30;;;;;;;7.77;91.65;99319.04;104747;1267;99114;-76
2023/03/26 01:38:09;;;;;;;10.30;5.50;;;;;;;7.76;91.76;99315.84;104757;1267;99293;-76
2023/03/26 01:41:06;;;;;;;10.90;4.80;;;;;;;7.74;92.07;99314.61;104768;1268;98246;-76
2023/03/26 01:44:10;;;;;;;12.80;6.20;;;;;;;7.74;92.17;99314.15;104652;1269;102672;-78
2023/03/26 01:46:58;;;;;;;8.70;4.90;;;;;;;7.74;92.21;99310.80;105395;1262;100137;-76
2023/03/26 01:49:44;;;;;;;8.00;5.10;;;;;;;7.73;92.27;99313.50;104799;1263;97957;-77
2023/03/26 01:52:30;;;;;;;8.80;5.40;;;;;;;7.73;92.38;99306.92;104732;1264;98452;-76
2023/03/26 01:55:16;;;;;;;7.50;5.00;;;;;;;7.73;92.54;99304.26;104777;1264;97967;-77
2023/03/26 01:58:26;;;;;;;7.30;4.90;;;;;;;7.74;92.51;99299.76;104708;1263;101375;-76
2023/03/26 02:01:29;;;;;;;8.70;4.90;;;;;;;7.73;92.58;99294.01;105040;1264;99122;-76
2023/03/26 02:04:25;;;;;;;14.80;5.70;;;;;;;7.72;92.53;99293.10;104998;1264;98063;-77
2023/03/26 02:07:24;;;;;;;7.20;4.70;;;;;;;7.71;92.63;99291.44;104684;1265;97995;-76
2023/03/26 02:10:15;;;;;;;8.90;5.40;;;;;;;7.71;92.50;99288.06;104709;1264;98571;-76
2023/03/26 02:13:02;;;;;;;7.80;4.80;;;;;;;7.70;92.82;99287.60;104606;1264;101935;-77
2023/03/26 02:15:55;;;;;;;7.00;4.70;;;;;;;7.69;92.93;99292.16;104721;1264;99225;-77
2023/03/26 02:18:43;;;;;;;8.20;4.90;;;;;;;7.69;93.06;99287.44;104734;1267;98069;-78
2023/03/26 02:21:32;;;;;;;8.30;5.30;;;;;;;7.68;93.32;99287.36;104884;1264;97978;-76
2023/03/26 02:24:18;;;;;;;7.70;4.50;;;;;;;7.66;93.38;99283.70;104724;1264;98034;-76
2023/03/26 02:27:06;;;;;;;6.80;4.70;;;;;;;7.66;93.33;99284.60;104758;1264;102533;-76
2023/03/26 02:29:52;;;;;;;8.30;5.00;;;;;;;7.65;93.63;99283.58;105606;1267;99972;-76
2023/03/26 02:32:42;;;;;;;7.50;4.60;;;;;;;7.65;93.62;99281.13;104775;1264;98488;-75
2023/03/26 02:35:28;;;;;;;8.70;4.50;;;;;;;7.65;93.67;99279.80;104713;1265;97868;-76
2023/03/26 02:38:18;;;;;;;6.90;4.30;;;;;;;7.66;93.72;99278.44;104834;1264;98434;-77
2023/03/26 02:41:04;;;;;;;8.50;4.50;;;;;;;7.67;93.55;99276.97;104618;1269;101351;-77
2023/03/26 02:44:02;;;;;;;6.80;4.50;;;;;;;7.68;93.90;99278.87;104740;1267;99107;-75
2023/03/26 02:47:07;;;;;;;8.30;4.90;;;;;;;7.68;93.71;99277.56;104836;1265;98015;-77
2023/03/26 02:49:58;;;;;;;8.40;4.40;;;;;;;7.69;93.70;99274.06;104739;1262;99198;-76
2023/03/26 02:52:53;;;;;;;6.20;4.10;;;;;;;7.71;93.63;99276.08;104631;1263;99657;-77
2023/03/26 02:55:38;;;;;;;6.30;4.10;;;;;;;7.72;93.60;99273.42;104832;1270;101369;-77
2023/03/26 02:58:25;;;;;;;8.70;4.80;;;;;;;7.72;93.55;99274.93;104789;1263;100132;-77
2023/03/26 03:01:10;;;;;;;7.90;4.00;;;;;;;7.72;93.37;99274.52;104868;1264;98961;-77
2023/03/26 03:04:10;;;;;;;5.70;3.40;;;;;;;7.72;93.43;99271.66;104706;1262;97942;-76
2023/03/26 03:06:56;;;;;;;6.60;3.50;;;;;;;7.73;93.67;99265.64;104902;1268;97984;-76
2023/03/26 03:09:42;;;;;;;6.80;4.30;;;;;;;7.75;93.69;99264.66;104830;1267;101360;-76
2023/03/26 03:13:06;;;;;;;8.70;4.30;;;;;;;7.78;93.52;99267.00;105020;1263;100326;-76
2023/03/26 03:15:52;;;;;;;6.80;3.90;;;;;;;7.78;93.10;99271.55;104659;1266;98216;-77
2023/03/26 03:18:38;;;;;;;9.80;3.80;;;;;;;7.78;93.03;99269.88;104614;1269;98046;-77
2023/03/26 03:21:27;;;;;;;7.90;3.90;;;;;;;7.78;92.96;99271.85;105053;1264;99194;-77
2023/03/26 03:24:17;;;;;;;6.50;3.50;;;;;;;7.77;92.81;99273.03;104890;1277;102631;-77
2023/03/26 03:27:04;;;;;;;7.30;3.80;;;;;;;7.77;92.81;99274.80;104787;1267;100633;-76
2023/03/26 03:29:57;;;;;;;5.60;3.60;;;;;;;7.78;92.83;99275.57;104860;1264;98999;-77
2023/03/26 03:33:02;;;;;;;7.40;3.80;;;;;;;7.79;92.72;99274.01;104744;1264;98035;-76
2023/03/26 03:35:49;;;;;;;7.80;3.70;;;;;;;7.79;92.70;99274.84;104588;1264;98448;-77
2023/03/26 03:38:37;;;;;;;5.70;3.10;;;;;;;7.79;92.80;99277.38;104762;1265;101340;-78
2023/03/26 03:41:23;;;;;;;7.40;3.50;;;;;;;7.79;92.67;99280.02;104728;1268;100415;-76
2023/03/26 03:44:08;;;;;;;5.00;3.40;;;;;;;7.78;92.42;99282.83;104656;1267;97939;-77
2023/03/26 03:46:55;;;;;;;5.70;3.00;;;;;;;7.78;92.59;99280.70;105057;1264;97860;-76
2023/03/26 03:49:41;;;;;;;5.40;3.70;;;;;;;7.78;92.49;99282.98;104703;1268;98518;-76
2023/03/26 03:52:27;;;;;;;5.50;3.10;;;;;;;7.78;92.45;99282.59;104773;1264;102532;-77
2023/03/26 03:55:14;;;;;;;7.00;3.40;;;;;;;7.78;92.40;99282.09;104599;1270;99137;-77
2023/03/26 03:58:04;;;;;;;7.10;3.60;;;;;;;7.78;92.13;99281.39;104602;1269;98003;-77
2023/03/26 04:00:51;;;;;;;6.00;3.30;;;;;;;7.78;92.15;99281.31;104637;1264;98072;-77
2023/03/26 04:04:00;;;;;;;5.80;2.90;;;;;;;7.78;92.13;99276.88;104836;1267;98502;-78
2023/03/26 04:06:57;;;;;;;5.00;3.00;;;;;;;7.81;92.27;99272.66;104762;1267;102634;-77
2023/03/26 04:09:43;;;;;;;4.50;2.90;;;;;;;7.83;92.31;99269.60;104731;1264;99270;-78
2023/03/26 04:12:33;;;;;;;7.40;3.60;;;;;;;7.83;91.84;99271.23;104784;1268;98998;-78
2023/03/26 04:15:21;;;;;;;8.40;3.40;;;;;;;7.82;91.97;99272.42;104861;1264;98320;-77
2023/03/26 04:18:11;;;;;;;5.80;3.20;;;;;;;7.82;91.67;99267.09;104860;1264;98524;-77
2023/03/26 04:21:01;;;;;;;8.50;4.00;;;;;;;7.81;91.74;99269.64;104544;1264;101346;-75
2023/03/26 04:23:47;;;;;;;8.30;4.20;;;;;;;7.80;91.80;99268.69;104949;1267;100284;-76
2023/03/26 04:26:42;;;;;;;4.50;3.00;;;;;;;7.80;91.73;99264.78;104720;1266;98964;-76
2023/03/26 04:29:41;;;;;;;9.10;3.40;;;;;;;7.80;91.65;99264.95;104751;1263;98006;-76
2023/03/26 04:32:34;;;;;;;10.90;3.70;;;;;;;7.80;91.58;99260.16;104579;1264;98021;-76
2023/03/26 04:35:20;;;;;;;6.80;3.40;;;;;;;7.79;91.73;99257.77;104755;1264;102050;-77
2023/03/26 04:38:10;;;;;;;6.90;2.80;;;;;;;7.80;91.64;99256.42;104722;1265;100538;-77
2023/03/26 04:41:00;;;;;;;5.60;3.50;;;;;;;7.80;91.56;99252.66;104770;1268;97984;-76
2023/03/26 04:44:00;;;;;;;4.60;3.00;;;;;;;7.79;91.54;99250.65;104653;1270;97985;-76
2023/03/26 04:47:10;;;;;;;5.80;3.20;;;;;;;7.80;91.56;99248.10;105017;1269;99079;-76
2023/03/26 04:50:08;;;;;;;5.30;3.10;;;;;;;7.82;91.61;99249.30;104899;1268;102663;-76
2023/03/26 04:52:56;;;;;;;8.80;3.70;;;;;;;7.84;91.56;99246.23;104955;1264;99150;-77
2023/03/26 04:56:36;;;;;;;8.80;3.50;;;;;;;7.85;91.49;99251.23;105051;1264;98045;-78
2023/03/26 04:59:34;;;;;;;5.20;3.80;;;;;;;7.87;91.40;99253.66;104989;1264;97920;-76
2023/03/26 05:02:21;;;;;;;10.30;3.90;;;;;;;7.89;91.11;99251.39;105083;1268;99180;-76
2023/03/26 05:05:12;;;;;;;5.50;3.40;;;;;;;7.90;91.04;99253.67;104594;1270;102582;-77
2023/03/26 05:07:57;;;;;;;5.80;3.50;;;;;;;7.92;91.10;99254.52;104705;1264;99095;-77
2023/03/26 05:10:42;;;;;;;7.90;4.00;;;;;;;7.95;91.21;99253.02;104620;1264;98092;-76
2023/03/26 05:13:42;;;;;;;8.20;3.40;;;;;;;7.98;91.16;99254.05;104662;1264;97973;-76
2023/03/26 05:16:30;;;;;;;7.50;3.30;;;;;;;8.00;90.91;99254.91;104636;1267;98524;-77
2023/03/26 05:19:22;;;;;;;4.80;2.90;;;;;;;8.02;90.91;99253.15;104639;1264;101369;-77
2023/03/26 05:22:07;;;;;;;7.90;3.00;;;;;;;8.03;90.73;99254.95;104660;1268;99107;-77
2023/03/26 05:24:55;;;;;;;4.30;2.80;;;;;;;8.03;90.80;99251.39;104596;1270;101447;-77
2023/03/26 05:27:41;;;;;;;7.10;3.80;;;;;;;8.04;90.84;99252.13;104732;1264;98654;-78
2023/03/26 05:30:27;;;;;;;6.00;3.00;;;;;;;8.06;90.51;99248.31;104728;1271;98534;-77
2023/03/26 05:33:16;;;;;;;5.20;2.90;;;;;;;8.07;90.42;99249.79;104618;1265;101363;-77
2023/03/26 05:36:14;;;;;;;6.60;3.10;;;;;;;8.09;90.40;99245.48;104631;1267;99161;-77
2023/03/26 05:39:02;;;;;;;6.80;3.50;;;;;;;8.11;90.38;99245.45;104728;1270;99317;-78
2023/03/26 05:42:15;;;;;;;5.30;3.20;;;;;;;8.11;90.11;99246.30;104666;1268;98040;-77
2023/03/26 05:45:21;;;;;;;6.00;3.80;;;;;;;8.10;90.06;99244.21;104771;1264;99170;-75
2023/03/26 05:48:07;;;;;;;5.30;3.40;;;;;;;8.11;89.98;99245.91;105265;1264;101974;-77
2023/03/26 05:50:54;;;;;;;8.10;4.30;;;;;;;8.12;90.01;99248.15;104871;1270;100547;-76
2023/03/26 05:53:40;;;;;;;6.60;3.10;;;;;;;8.11;90.12;99248.69;104681;1271;97968;-76
2023/03/26 05:56:32;;;;;;;6.40;3.90;;;;;;;8.11;90.24;99250.13;104466;1266;98065;-76
2023/03/26 05:59:36;;;;;;;9.10;3.90;;;;;;;8.13;90.32;99249.21;104737;1264;99650;-77
2023/03/26 06:02:37;;;;;;;6.50;4.10;;;;;;;8.14;90.47;99252.13;104749;1262;101320;-76
2023/03/26 06:05:55;;;;;;;5.80;3.40;;;;;;;8.14;90.58;99251.19;104625;1265;99254;-78
2023/03/26 06:08:55;;;;;;;6.70;3.40;;;;;;;8.13;90.72;99252.74;104701;1270;98937;-77
2023/03/26 06:11:40;;;;;;;6.60;4.50;;;;;;;8.13;90.72;99255.30;104654;1269;97988;-77
2023/03/26 06:14:26;;;;;;;9.10;3.90;;;;;;;8.15;91.20;99253.77;104633;1271;98141;-78
2023/03/26 06:17:37;;;;;;;8.10;4.10;;;;;;;8.18;91.40;99257.20;104776;1264;102587;-76
2023/03/26 06:20:55;;;;;;;6.80;3.40;;;;;;;8.21;91.49;99256.25;104637;1273;99114;-77
2023/03/26 06:23:50;;;;;;;7.30;3.90;;;;;;;8.24;91.47;99259.96;104649;1264;97986;-75
2023/03/26 06:26:54;;;;;;;5.20;3.50;;;;;;;8.27;91.64;99260.59;104859;1267;97973;-78
2023/03/26 06:29:59;;;;;;;9.40;8.20;;;;;;;8.31;91.77;99260.64;104860;1263;98494;-78
2023/03/26 06:32:58;;;;;;;6.30;3.60;;;;;;;8.34;91.68;99260.32;104851;1264;102731;-78
2023/03/26 06:35:48;;;;;;;7.30;3.50;;;;;;;8.36;91.54;99258.06;105124;1268;99826;-77
2023/03/26 06:38:34;;;;;;;6.10;3.50;;;;;;;8.39;91.67;99257.35;104823;1281;99017;-76
2023/03/26 06:41:22;;;;;;;6.50;3.70;;;;;;;8.44;91.84;99249.55;104978;1268;98074;-78
2023/03/26 06:44:17;;;;;;;7.40;3.60;;;;;;;8.50;91.84;99251.54;104904;1268;98131;-78
2023/03/26 06:47:34;;;;;;;6.60;3.50;;;;;;;8.55;92.06;99253.70;104811;1277;101965;-78
2023/03/26 06:50:39;;;;;;;5.10;3.50;;;;;;;8.59;91.76;99253.29;105026;1266;101335;-78
2023/03/26 06:53:32;;;;;;;7.00;3.50;;;;;;;8.64;91.82;99255.30;104965;1268;97961;-76
2023/03/26 06:56:37;;;;;;;5.50;3.20;;;;;;;8.68;91.77;99253.80;104862;1264;98768;-77
2023/03/26 06:59:39;;;;;;;6.10;3.10;;;;;;;8.73;91.57;99253.48;104737;1266;98013;-76
2023/03/26 07:02:44;;;;;;;4.90;3.00;;;;;;;8.79;91.13;99258.06;105028;1263;101353;-76
2023/03/26 07:05:48;;;;;;;5.70;2.30;;;;;;;8.84;91.10;99258.19;104772;1264;100407;-76
2023/03/26 07:08:54;;;;;;;5.20;2.70;;;;;;;8.87;90.68;99252.64;104769;1264;98908;-77
2023/03/26 07:11:58;;;;;;;5.80;2.50;;;;;;;8.85;90.27;99251.45;104831;1262;98066;-77
2023/03/26 07:15:04;;;;;;;5.40;2.80;;;;;;;8.85;90.46;99256.79;104917;1268;98539;-76
2023/03/26 07:18:09;;;;;;;6.70;2.80;;;;;;;8.87;90.55;99256.09;104957;1265;102197;-76
2023/03/26 07:20:57;;;;;;;7.00;2.90;;;;;;;8.87;90.38;99251.73;104884;1268;100346;-77
2023/03/26 07:23:47;;;;;;;8.30;3.70;;;;;;;8.88;90.19;99256.83;105487;1264;98753;-79
2023/03/26 07:27:35;;;;;;;6.20;2.60;;;;;;;8.91;90.51;99253.52;105702;1269;98039;-85
2023/03/26 07:30:31;;;;;;;3.70;3.00;;;;;;;8.98;90.37;99254.59;105231;1271;97816;-80
2023/03/26 07:33:52;;;;;;;3.00;2.30;;;;;;;9.04;90.05;99250.41;105584;1268;102119;-83
2023/03/26 07:37:00;;;;;;;3.20;2.40;;;;;;;9.13;90.10;99253.22;105711;1268;100454;-83
2023/03/26 07:40:40;;;;;;;4.50;3.00;;;;;;;9.22;90.02;99250.02;105600;1264;98951;-83
2023/03/26 07:44:02;;;;;;;4.50;2.60;;;;;;;9.26;89.23;99249.33;105544;1268;98064;-86
2023/03/26 07:47:27;;;;;;;3.10;2.50;;;;;;;9.22;88.60;99245.89;105554;1268;97961;-83
2023/03/26 07:50:37;;;;;;;10.00;6.40;;;;;;;9.14;87.99;99253.23;105818;1264;101455;-86
2023/03/26 07:53:29;;;;;;;5.70;3.40;;;;;;;9.08;87.94;99249.05;105527;1274;99135;-82
2023/03/26 07:56:38;;;;;;;3.50;3.10;;;;;;;9.05;88.04;99249.47;105525;1265;98736;-84
2023/03/26 07:59:46;;;;;;;5.60;3.90;;;;;;;9.04;88.18;99252.43;105470;1270;97984;-77
2023/03/26 08:03:15;;;;;;;4.10;2.90;;;;;;;9.07;88.71;99241.70;105164;1265;98209;-76
2023/03/26 08:06:42;;;;;;;5.50;3.40;;;;;;;9.11;88.65;99242.52;104710;1267;102805;-75
2023/03/26 08:10:19;;;;;;;4.70;3.10;;;;;;;9.18;88.76;99242.31;104798;1267;99859;-75
2023/03/26 08:13:45;;;;;;;6.40;3.80;;;;;;;9.25;89.24;99244.67;104932;1266;98717;-83
2023/03/26 08:17:10;;;;;;;6.70;3.50;;;;;;;9.28;89.28;99243.48;98150;1265;10002748;-84
2023/03/26 08:20:10;;;;;;;5.40;4.30;;;;;;;9.27;88.78;99243.85;105565;1266;102624;-83
2023/03/26 08:23:22;;;;;;;5.00;3.90;;;;;;;9.28;88.96;99244.30;105397;1271;99876;-83
2023/03/26 08:26:18;;;;;;;5.80;4.00;;;;;;;9.28;88.56;99240.05;105297;1269;99156;-81
2023/03/26 08:29:31;;;;;;;6.60;3.50;;;;;;;9.32;88.35;99242.17;105510;1271;98397;-83
2023/03/26 08:32:18;;;;;;;5.90;3.60;;;;;;;9.40;88.23;99242.06;105563;1268;97812;-86
2023/03/26 08:35:07;;;;;;;9.60;4.70;;;;;;;9.46;87.99;99244.27;105911;1267;102251;-86
2023/03/26 08:37:54;;;;;;;6.60;4.50;;;;;;;9.51;87.65;99244.40;105708;1268;100253;-82
2023/03/26 08:41:23;;;;;;;6.70;3.80;;;;;;;9.52;88.16;99242.34;105635;1271;97982;-85
2023/03/26 08:44:35;;;;;;;7.20;5.00;;;;;;;9.45;88.37;99240.61;105623;1265;97992;-83
2023/03/26 08:47:27;;;;;;;6.60;4.90;;;;;;;9.39;88.42;99240.15;105598;1268;97972;-82
2023/03/26 08:50:31;;;;;;;10.80;5.20;;;;;;;9.35;88.24;99241.85;105728;1267;101974;-84
2023/03/26 08:53:46;;;;;;;8.80;5.40;;;;;;;9.37;88.62;99233.05;105556;1266;100270;-84
2023/03/26 08:56:58;;;;;;;4.90;4.00;;;;;;;9.45;88.78;99228.03;105625;1264;97897;-85
2023/03/26 09:00:14;;;;;;;6.90;4.00;;;;;;;9.51;88.77;99227.17;105379;1265;98084;-83
2023/03/26 09:03:25;;;;;;;11.10;7.00;;;;;;;9.56;88.28;99230.33;105425;1272;97963;-85
2023/03/26 09:06:28;;;;;;;8.80;5.60;;;;;;;9.58;87.59;99232.37;106076;1268;102638;-86
2023/03/26 09:09:42;;;;;;;8.20;3.90;;;;;;;9.60;87.76;99228.41;105880;1264;99737;-87
2023/03/26 09:13:03;;;;;;;6.80;3.90;;;;;;;9.66;87.72;99232.11;105686;1264;100179;-88
2023/03/26 09:16:14;;;;;;;7.50;4.00;;;;;;;9.71;87.19;99226.63;105814;1266;97962;-88
2023/03/26 09:19:00;;;;;;;;;;;;;;;9.81;87.23;99217.06;105965;1262;97890;-87
2023/03/26 09:22:24;;;;;;;4.40;3.80;;;;;;;9.97;87.91;99215.64;105818;1262;101377;-84
2023/03/26 09:25:22;;;;;;;6.10;3.40;;;;;;;10.09;87.40;99218.70;105453;1266;102942;-85
2023/03/26 09:28:35;;;;;;;4.80;3.20;;;;;;;10.12;86.54;99222.52;105446;1265;99048;-84
2023/03/26 09:31:56;;;;;;;3.90;2.40;;;;;;;10.07;85.78;99219.79;105460;1270;97984;-83
2023/03/26 09:35:20;;;;;;;5.30;2.60;;;;;;;10.00;84.76;99223.69;105528;1264;97900;-85
2023/03/26 09:38:12;;;;;;;5.20;3.20;;;;;;;10.02;84.95;99224.33;105622;1266;102587;-86
2023/03/26 09:41:09;;;;;;;5.50;3.00;;;;;;;10.07;84.53;99226.15;105674;1268;99146;-85
2023/03/26 09:44:26;;;;;;;4.40;2.50;;;;;;;10.05;84.07;99226.20;105467;1268;97898;-83
2023/03/26 09:47:43;;;;;;;4.60;2.30;;;;;;;10.08;84.50;99229.73;105705;1271;98060;-81
2023/03/26 09:50:33;;;;;;;8.00;4.00;;;;;;;10.15;84.62;99229.34;105721;1271;98448;-84
2023/03/26 09:53:40;;;;;;;8.40;3.00;;;;;;;10.21;84.02;99231.19;105660;1268;102624;-84
2023/03/26 09:56:48;;;;;;;3.50;2.20;;;;;;;10.24;83.20;99226.80;106134;1265;100407;-86
2023/03/26 09:59:53;;;;;;;2.70;1.80;;;;;;;10.26;82.63;99220.94;104957;1268;97972;-76
2023/03/26 10:02:44;;;;;;;2.40;1.90;;;;;;;10.28;82.76;99223.98;104743;1267;97973;-76
2023/03/26 10:05:37;;;;;;;6.20;3.10;;;;;;;10.31;82.94;99219.33;104993;1268;97946;-77
2023/03/26 10:08:49;;;;;;;2.70;1.70;;;;;;;10.31;82.36;99223.77;106648;1268;102618;-76
2023/03/26 10:11:53;;;;;;;2.10;1.50;;;;;;;10.29;81.79;99234.13;104722;1265;99859;-77
2023/03/26 10:15:16;;;;;;;2.60;1.40;;;;;;;10.41;82.34;99226.29;104857;1266;98154;-75
2023/03/26 10:18:14;;;;;;;5.20;3.30;;;;;;;10.57;82.43;99226.09;104920;1268;97984;-76
2023/03/26 10:21:37;;;;;;;5.40;3.00;;;;;;;10.62;81.80;99226.88;104720;1265;98405;-76
2023/03/26 10:24:38;;;;;;;7.10;3.80;;;;;;;10.65;81.71;99221.38;104790;1269;102667;-76
2023/03/26 10:27:31;;;;;;;5.10;3.00;;;;;;;10.65;81.55;99220.05;104773;1264;99082;-77
2023/03/26 10:30:22;;;;;;;7.60;3.70;;;;;;;10.63;81.29;99217.19;104933;1265;98991;-75
2023/03/26 10:33:29;;;;;;;10.10;4.60;;;;;;;10.66;81.11;99213.54;104693;1264;99369;-75
2023/03/26 10:36:31;;;;;;;16.00;6.90;;;;;;;10.72;82.09;99208.97;104677;1266;98507;-75
2023/03/26 10:40:02;;;;;;;13.40;6.70;;;;;;;10.77;81.61;99207.36;104638;1268;110747;-75
2023/03/26 10:43:01;;;;;;;7.60;3.50;;;;;;;10.71;80.74;99207.05;104695;1270;99758;-76
2023/03/26 10:45:59;;;;;;;7.80;3.00;;;;;;;10.66;80.64;99204.09;104664;1277;99232;-76
2023/03/26 10:49:19;;;;;;;10.00;5.60;;;;;;;10.63;79.96;99208.09;104703;1264;97970;-76
2023/03/26 10:52:20;;;;;;;3.50;2.60;;;;;;;10.57;79.90;99204.48;104799;1268;99177;-76
2023/03/26 10:55:17;;;;;;;3.00;2.10;;;;;;;10.47;79.16;99207.86;104720;1268;101406;-76
2023/03/26 10:58:22;;;;;;;5.00;2.80;;;;;;;10.39;79.13;99209.73;104646;1265;100274;-75
2023/03/26 11:01:19;;;;;;;10.40;3.20;;;;;;;10.37;79.50;99214.59;104666;1269;97763;-77
2023/03/26 11:04:24;;;;;;;4.60;2.50;;;;;;;10.39;79.68;99208.77;104628;1264;97958;-75
2023/03/26 11:07:21;;;;;;;6.30;2.60;;;;;;;10.46;80.12;99208.58;104636;1264;97978;-76
2023/03/26 11:10:30;;;;;;;5.00;3.10;;;;;;;10.57;79.82;99207.93;104689;1266;101360;-77
2023/03/26 11:13:37;;;;;;;3.80;2.60;;;;;;;10.62;79.43;99208.80;104551;1268;100500;-76
2023/03/26 11:16:35;;;;;;;3.20;2.10;;;;;;;10.63;79.26;99205.07;104661;1269;99108;-78
2023/03/26 11:19:27;;;;;;;4.70;2.80;;;;;;;10.68;79.05;99200.79;104680;1270;97931;-77
2023/03/26 11:22:28;;;;;;;2.20;2.00;;;;;;;10.76;79.02;99199.17;104575;1265;99145;-75
2023/03/26 11:25:23;;;;;;;2.90;1.90;;;;;;;10.83;78.24;99202.02;104742;1265;101359;-75
2023/03/26 11:28:31;;;;;;;3.30;2.30;;;;;;;10.91;77.81;99203.96;104717;1265;99388;-76
2023/03/26 11:31:35;;;;;;;3.20;2.20;;;;;;;11.04;77.74;99202.47;104718;1268;97989;-76
2023/03/26 11:34:28;;;;;;;3.50;2.30;;;;;;;11.13;76.34;99206.84;104647;1278;99110;-77
2023/03/26 11:37:46;;;;;;;2.80;1.50;;;;;;;11.11;75.37;99211.48;104657;1266;98109;-76
2023/03/26 11:40:37;;;;;;;3.20;1.40;;;;;;;11.12;75.11;99210.48;104681;1268;102599;-76
2023/03/26 11:43:31;;;;;;;2.50;1.60;;;;;;;11.07;74.78;99213.61;104641;1269;99130;-77
2023/03/26 11:46:19;;;;;;;3.00;1.50;;;;;;;10.99;74.90;99215.09;104791;1266;98989;-77
2023/03/26 11:49:10;;;;;;;2.30;1.70;;;;;;;10.97;74.59;99214.65;104764;1269;99194;-76
2023/03/26 11:51:55;;;;;;;2.10;1.70;;;;;;;11.00;74.25;99209.15;104694;1266;98095;-77
2023/03/26 11:54:42;;;;;;;1.40;1.20;;;;;;;11.00;73.93;99206.13;104648;1271;101350;-75
2023/03/26 11:57:34;;;;;;;3.50;1.30;;;;;;;10.97;73.17;99210.51;104625;1268;100334;-76
2023/03/26 12:00:21;;;;;;;1.70;1.40;;;;;;;10.90;72.75;99212.13;104812;1265;98156;-75
2023/03/26 12:03:14;;;;;;;1.70;1.20;;;;;;;10.90;73.04;99210.36;104667;1271;99044;-76
2023/03/26 12:06:01;;;;;;;3.30;1.90;;;;;;;11.00;73.59;99206.27;104673;1271;98488;-76
2023/03/26 12:08:48;;;;;;;3.10;1.80;;;;;;;11.08;73.36;99201.02;104705;1265;101336;-78
2023/03/26 12:11:35;;;;;;;2.80;2.00;;;;;;;11.08;72.84;99202.58;104668;1269;100345;-76
2023/03/26 12:14:25;;;;;;;2.80;1.80;;;;;;;11.09;72.59;99201.17;104855;1264;99313;-76
2023/03/26 12:17:14;;;;;;;3.00;2.40;;;;;;;11.19;73.07;99198.21;104720;1271;98058;-77
2023/03/26 12:20:01;;;;;;;5.60;3.20;;;;;;;11.34;72.81;99197.89;104715;1268;98429;-76
2023/03/26 12:22:47;;;;;;;8.90;3.90;;;;;;;11.42;72.50;99192.54;104792;1266;102600;-76
2023/03/26 12:25:37;;;;;;;6.80;3.10;;;;;;;11.42;71.99;99195.31;104944;1269;99086;-77
2023/03/26 12:28:31;;;;;;;6.40;2.60;;;;;;;11.37;72.11;99197.27;105399;1268;99208;-76
2023/03/26 12:31:18;;;;;;;5.60;3.80;;;;;;;11.33;71.90;99199.02;104831;1264;98115;-77
2023/03/26 12:34:15;;;;;;;5.90;3.20;;;;;;;11.32;72.00;99200.77;104834;1270;98024;-78
2023/03/26 12:37:02;;;;;;;6.50;3.60;;;;;;;11.40;72.24;99201.36;104788;1268;102097;-77
2023/03/26 12:39:48;;;;;;;10.10;4.40;;;;;;;11.53;72.21;99196.69;105421;1264;99659;-90
2023/03/26 12:42:40;;;;;;;13.00;4.80;;;;;;;11.65;71.46;99194.05;105868;1268;108338;-86
2023/03/26 12:45:41;;;;;;;5.00;2.00;;;;;;;11.75;71.85;99190.88;106061;1270;97974;-87
2023/03/26 12:48:28;;;;;;;8.60;3.10;;;;;;;11.94;72.12;99185.73;105920;1271;97074;-88
2023/03/26 12:51:22;;;;;;;7.80;5.80;;;;;;;12.08;71.24;99183.86;105936;1264;103163;-83
2023/03/26 12:54:35;;;;;;;8.80;4.20;;;;;;;12.20;70.59;99186.94;105954;1264;99288;-85
2023/03/26 12:58:14;;;;;;;7.80;4.00;;;;;;;12.24;69.89;99188.28;105624;1265;98464;-88
2023/03/26 13:01:07;;;;;;;3.60;1.70;;;;;;;12.36;69.72;99184.02;104724;1264;98576;-76
2023/03/26 13:04:13;;;;;;;3.60;1.90;;;;;;;12.43;68.82;99188.57;104776;1269;97885;-77
2023/03/26 13:07:15;;;;;;;3.10;1.60;;;;;;;12.43;67.54;99196.18;106684;1266;102602;-88
2023/03/26 13:10:11;;;;;;;1.80;1.10;;;;;;;12.32;66.89;99189.21;105466;1268;99120;-84
2023/03/26 13:13:28;;;;;;;1.80;1.50;;;;;;;12.29;67.33;99190.66;105704;1266;98049;-86
2023/03/26 13:16:54;;;;;;;2.40;1.30;;;;;;;12.35;67.13;99194.29;105638;1271;98003;-87
2023/03/26 13:20:11;;;;;;;2.30;1.40;;;;;;;12.46;67.51;99196.41;105434;1264;97991;-83
2023/03/26 13:23:09;;;;;;;1.60;1.50;;;;;;;12.57;67.54;99199.16;105488;1266;101386;-85
2023/03/26 13:26:45;;;;;;;1.80;1.40;;;;;;;12.63;68.19;99203.11;105476;1269;99126;-83
2023/03/26 13:29:45;;;;;;;2.30;2.10;;;;;;;12.55;67.46;99202.38;105171;1276;99075;-84
2023/03/26 13:32:45;;;;;;;3.90;2.80;;;;;;;12.28;67.72;99212.59;105668;1264;97991;-85
2023/03/26 13:35:50;;;;;;;2.70;1.90;;;;;;;12.00;68.99;99217.89;105739;1270;98540;-83
2023/03/26 13:38:50;;;;;;;2.20;1.30;;;;;;;11.77;68.74;99223.45;105794;1268;102790;-83
2023/03/26 13:41:45;;;;;;;1.70;1.40;;;;;;;11.53;68.89;99220.67;105823;1264;99208;-88
2023/03/26 13:44:49;;;;;;;1.90;1.10;;;;;;;11.34;69.36;99221.20;106272;1269;98414;-80
2023/03/26 13:47:39;;;;;;;1.80;1.20;;;;;;;11.32;69.98;99216.20;106217;1268;97970;-77
2023/03/26 13:50:29;;;;;;;1.40;0.90;;;;;;;11.48;70.94;99219.45;104824;1270;97992;-76